createdAt,value
2023-03-26T00:01:02.717Z,75.70
2023-03-26T00:02:08.238Z,85.07
2023-03-26T00:03:15.247Z,83.00
2023-03-26T00:04:21.390Z,85.28
2023-03-26T00:05:28.113Z,82.07
2023-03-26T00:06:36.357Z,84.78
2023-03-26T00:07:44.959Z,85.57
2023-03-26T00:08:50.400Z,87.32
2023-03-26T00:09:57.384Z,85.05
2023-03-26T00:11:02.699Z,85.88
2023-03-26T00:12:09.536Z,80.77
2023-03-26T00:13:14.916Z,82.03
2023-03-26T00:14:21.738Z,84.00
2023-03-26T00:15:27.057Z,82.03
2023-03-26T00:16:35.183Z,79.43
2023-03-26T00:17:40.574Z,82.72
2023-03-26T00:18:47.592Z,80.03
2023-03-26T00:19:52.999Z,82.63
2023-03-26T00:20:59.812Z,73.05
2023-03-26T00:22:06.555Z,74.60
2023-03-26T00:23:13.609Z,76.03
2023-03-26T00:24:20.264Z,77.05
2023-03-26T00:25:26.014Z,73.50
2023-03-26T00:26:32.805Z,76.15
2023-03-26T00:27:39.616Z,72.63
2023-03-26T00:28:45.475Z,72.07
2023-03-26T00:29:52.182Z,70.53
2023-03-26T00:31:01.902Z,77.45
2023-03-26T00:32:09.125Z,73.22
2023-03-26T00:33:14.480Z,74.13
2023-03-26T00:34:22.274Z,75.30
2023-03-26T00:35:28.005Z,73.38
2023-03-26T00:36:37.295Z,75.68
2023-03-26T00:37:43.961Z,73.53
2023-03-26T00:38:54.467Z,74.70
2023-03-26T00:40:06.224Z,75.00
2023-03-26T00:41:19.234Z,69.75
2023-03-26T00:42:25.951Z,74.85
2023-03-26T00:43:34.309Z,74.82
2023-03-26T00:44:41.005Z,78.40
2023-03-26T00:45:46.308Z,78.87
2023-03-26T00:46:52.985Z,77.57
2023-03-26T00:47:58.467Z,76.85
2023-03-26T00:49:05.557Z,78.70
2023-03-26T00:50:16.856Z,86.63
2023-03-26T00:51:25.037Z,73.38
2023-03-26T00:52:31.248Z,81.72
2023-03-26T00:53:39.771Z,75.70
2023-03-26T00:54:46.880Z,73.80
2023-03-26T00:55:53.768Z,73.70
2023-03-26T00:57:01.360Z,70.00
2023-03-26T00:58:08.115Z,74.68
2023-03-26T00:59:14.808Z,74.43
2023-03-26T01:00:22.034Z,64.65
2023-03-26T01:01:30.574Z,77.95
2023-03-26T01:02:36.063Z,70.05
2023-03-26T01:03:50.064Z,60.03
2023-03-26T01:05:05.458Z,61.20
2023-03-26T01:06:13.207Z,61.08
2023-03-26T01:07:23.352Z,61.47
2023-03-26T01:08:32.652Z,61.57
2023-03-26T01:09:44.141Z,61.75
2023-03-26T01:10:52.735Z,56.70
2023-03-26T01:11:59.506Z,61.25
2023-03-26T01:13:04.935Z,58.80
2023-03-26T01:14:15.066Z,66.13
2023-03-26T01:15:20.506Z,65.38
2023-03-26T01:16:30.683Z,66.72
2023-03-26T01:17:36.203Z,65.80
2023-03-26T01:18:44.732Z,73.10
2023-03-26T01:19:53.806Z,69.20
2023-03-26T01:21:06.549Z,74.57
2023-03-26T01:22:16.141Z,68.80
2023-03-26T01:23:25.058Z,68.55
2023-03-26T01:24:33.473Z,70.05
2023-03-26T01:25:43.987Z,65.10
2023-03-26T01:27:11.117Z,69.70
2023-03-26T01:28:19.004Z,67.53
2023-03-26T01:29:33.193Z,71.53
2023-03-26T01:30:43.879Z,67.20
2023-03-26T01:31:58.918Z,72.80
2023-03-26T01:33:06.655Z,75.82
2023-03-26T01:34:18.585Z,70.65
2023-03-26T01:35:32.036Z,75.07
2023-03-26T01:36:44.129Z,69.55
2023-03-26T01:38:00.983Z,68.07
2023-03-26T01:39:10.269Z,71.95
2023-03-26T01:40:21.541Z,73.80
2023-03-26T01:41:33.201Z,73.18
2023-03-26T01:42:43.702Z,69.57
2023-03-26T01:43:51.767Z,70.13
2023-03-26T01:45:01.466Z,76.32
2023-03-26T01:46:08.323Z,76.07
2023-03-26T01:47:15.989Z,73.40
2023-03-26T01:48:21.386Z,76.03
2023-03-26T01:49:28.137Z,75.20
2023-03-26T01:50:33.471Z,80.88
2023-03-26T01:51:40.419Z,74.53
2023-03-26T01:52:45.720Z,69.60
2023-03-26T01:53:52.684Z,75.72
2023-03-26T01:54:59.114Z,74.60
2023-03-26T01:56:16.793Z,73.50
2023-03-26T01:57:27.960Z,71.20
2023-03-26T01:58:39.416Z,72.30
2023-03-26T01:59:59.313Z,70.43
2023-03-26T02:01:14.632Z,69.18
2023-03-26T02:02:25.010Z,68.88
2023-03-26T02:03:34.785Z,71.25
2023-03-26T02:04:45.216Z,68.32
2023-03-26T02:05:56.617Z,69.35
2023-03-26T02:07:07.286Z,68.80
2023-03-26T02:08:22.540Z,69.97
2023-03-26T02:09:31.575Z,68.43
2023-03-26T02:10:41.715Z,72.47
2023-03-26T02:11:50.288Z,66.90
2023-03-26T02:12:57.342Z,72.55
2023-03-26T02:14:02.596Z,75.22
2023-03-26T02:15:10.434Z,68.30
2023-03-26T02:16:18.088Z,65.15
2023-03-26T02:17:25.696Z,64.45
2023-03-26T02:18:37.748Z,66.33
2023-03-26T02:19:44.982Z,63.13
2023-03-26T02:20:50.667Z,63.55
2023-03-26T02:22:01.187Z,60.38
2023-03-26T02:23:07.288Z,58.47
2023-03-26T02:24:14.086Z,57.63
2023-03-26T02:25:20.760Z,58.25
2023-03-26T02:26:28.065Z,53.58
2023-03-26T02:27:35.556Z,54.67
2023-03-26T02:28:42.642Z,53.20
2023-03-26T02:29:49.188Z,52.13
2023-03-26T02:30:59.155Z,50.83
2023-03-26T02:32:06.350Z,49.03
2023-03-26T02:33:16.918Z,52.17
2023-03-26T02:34:22.577Z,49.85
2023-03-26T02:35:29.671Z,53.13
2023-03-26T02:36:35.127Z,55.15
2023-03-26T02:37:41.896Z,52.33
2023-03-26T02:38:47.258Z,53.00
2023-03-26T02:39:54.122Z,50.70
2023-03-26T02:40:59.474Z,54.53
2023-03-26T02:42:06.188Z,52.30
2023-03-26T02:43:13.184Z,49.90
2023-03-26T02:44:19.847Z,49.05
2023-03-26T02:45:25.271Z,50.65
2023-03-26T02:46:31.887Z,55.22
2023-03-26T02:47:37.247Z,51.33
2023-03-26T02:48:45.447Z,51.53
2023-03-26T02:49:50.812Z,51.92
2023-03-26T02:50:57.541Z,50.45
2023-03-26T02:52:02.946Z,54.63
2023-03-26T02:53:09.631Z,54.65
2023-03-26T02:54:17.833Z,56.20
2023-03-26T02:55:23.106Z,51.47
2023-03-26T02:56:29.936Z,50.85
2023-03-26T02:57:35.634Z,50.60
2023-03-26T02:58:44.197Z,48.13
2023-03-26T02:59:51.911Z,50.35
2023-03-26T03:00:58.579Z,47.08
2023-03-26T03:02:03.973Z,44.80
2023-03-26T03:03:11.124Z,44.93
2023-03-26T03:04:16.535Z,46.20
2023-03-26T03:05:27.772Z,44.90
2023-03-26T03:06:34.012Z,48.22
2023-03-26T03:07:40.672Z,45.33
2023-03-26T03:08:47.653Z,45.67
2023-03-26T03:09:54.269Z,43.85
2023-03-26T03:11:00.895Z,42.45
2023-03-26T03:12:07.825Z,40.88
2023-03-26T03:13:13.201Z,44.33
2023-03-26T03:14:21.675Z,45.03
2023-03-26T03:15:26.941Z,41.47
2023-03-26T03:16:33.926Z,41.83
2023-03-26T03:17:39.275Z,41.03
2023-03-26T03:18:45.956Z,41.28
2023-03-26T03:19:51.204Z,40.00
2023-03-26T03:20:57.956Z,41.20
2023-03-26T03:22:03.244Z,41.40
2023-03-26T03:23:09.869Z,40.10
2023-03-26T03:24:19.782Z,38.88
2023-03-26T03:25:25.065Z,39.57
2023-03-26T03:26:32.064Z,40.23
2023-03-26T03:27:40.751Z,38.83
2023-03-26T03:28:48.313Z,37.13
2023-03-26T03:29:57.289Z,38.50
2023-03-26T03:31:03.887Z,35.33
2023-03-26T03:32:09.136Z,35.25
2023-03-26T03:33:15.996Z,34.10
2023-03-26T03:34:21.632Z,37.92
2023-03-26T03:35:29.205Z,34.92
2023-03-26T03:36:39.793Z,38.80
2023-03-26T03:37:45.240Z,40.33
2023-03-26T03:38:52.404Z,42.55
2023-03-26T03:39:57.784Z,48.83
2023-03-26T03:41:04.378Z,44.53
2023-03-26T03:42:09.645Z,45.00
2023-03-26T03:43:16.332Z,42.28
2023-03-26T03:44:21.616Z,44.45
2023-03-26T03:45:29.959Z,41.47
2023-03-26T03:46:36.705Z,43.25
2023-03-26T03:47:42.196Z,45.53
2023-03-26T03:48:51.257Z,41.13
2023-03-26T03:49:57.992Z,46.08
2023-03-26T03:51:04.671Z,42.85
2023-03-26T03:52:10.286Z,47.00
2023-03-26T03:53:17.458Z,45.00
2023-03-26T03:54:22.720Z,41.85
2023-03-26T03:55:30.278Z,42.90
2023-03-26T03:56:37.544Z,44.45
2023-03-26T03:57:43.023Z,46.83
2023-03-26T03:58:49.956Z,45.90
2023-03-26T03:59:55.506Z,44.97
2023-03-26T04:01:04.770Z,45.28
2023-03-26T04:02:12.554Z,42.42
2023-03-26T04:03:19.575Z,44.22
2023-03-26T04:04:39.585Z,45.10
2023-03-26T04:05:50.823Z,44.00
2023-03-26T04:06:56.083Z,44.97
2023-03-26T04:08:02.846Z,46.90
2023-03-26T04:09:08.079Z,45.22
2023-03-26T04:10:18.565Z,45.43
2023-03-26T04:11:23.798Z,46.80
2023-03-26T04:12:31.289Z,45.58
2023-03-26T04:13:36.578Z,46.35
2023-03-26T04:14:43.168Z,43.95
2023-03-26T04:15:58.173Z,47.58
2023-03-26T04:17:07.502Z,45.53
2023-03-26T04:18:13.320Z,45.42
2023-03-26T04:19:19.960Z,47.47
2023-03-26T04:20:25.215Z,47.47
2023-03-26T04:21:32.572Z,47.60
2023-03-26T04:22:38.020Z,47.27
2023-03-26T04:23:44.965Z,47.97
2023-03-26T04:24:51.693Z,47.03
2023-03-26T04:25:59.267Z,48.22
2023-03-26T04:27:04.660Z,45.40
2023-03-26T04:28:13.384Z,45.30
2023-03-26T04:29:19.827Z,46.90
2023-03-26T04:30:26.827Z,47.05
2023-03-26T04:31:32.421Z,47.17
2023-03-26T04:32:41.864Z,45.33
2023-03-26T04:33:48.350Z,49.33
2023-03-26T04:34:55.210Z,47.85
2023-03-26T04:36:04.015Z,47.97
2023-03-26T04:37:10.658Z,47.45
2023-03-26T04:38:18.290Z,45.80
2023-03-26T04:39:30.817Z,46.25
2023-03-26T04:40:38.942Z,48.75
2023-03-26T04:41:45.593Z,52.08
2023-03-26T04:42:50.985Z,54.53
2023-03-26T04:43:58.314Z,57.10
2023-03-26T04:45:09.812Z,54.77
2023-03-26T04:46:16.590Z,56.22
2023-03-26T04:47:25.423Z,59.25
2023-03-26T04:48:34.164Z,59.78
2023-03-26T04:49:39.497Z,60.35
2023-03-26T04:50:46.674Z,57.97
2023-03-26T04:51:52.263Z,58.60
2023-03-26T04:53:00.003Z,58.55
2023-03-26T04:54:05.657Z,58.75
2023-03-26T04:55:20.381Z,54.87
2023-03-26T04:56:34.679Z,54.47
2023-03-26T04:57:45.222Z,54.00
2023-03-26T04:58:51.850Z,59.28
2023-03-26T04:59:58.520Z,58.40
2023-03-26T05:01:09.850Z,59.88
2023-03-26T05:02:17.651Z,58.38
2023-03-26T05:03:22.947Z,60.47
2023-03-26T05:04:31.544Z,60.83
2023-03-26T05:05:36.862Z,57.88
2023-03-26T05:06:43.739Z,58.47
2023-03-26T05:07:49.073Z,57.87
2023-03-26T05:08:56.043Z,56.60
2023-03-26T05:10:03.700Z,58.42
2023-03-26T05:11:12.909Z,56.63
2023-03-26T05:12:18.388Z,58.25
2023-03-26T05:13:25.125Z,57.58
2023-03-26T05:14:30.423Z,54.60
2023-03-26T05:15:37.053Z,58.13
2023-03-26T05:16:43.067Z,57.60
2023-03-26T05:17:50.001Z,54.60
2023-03-26T05:18:55.598Z,56.50
2023-03-26T05:20:04.056Z,55.67
2023-03-26T05:21:09.702Z,56.42
2023-03-26T05:22:16.422Z,56.20
2023-03-26T05:23:23.734Z,54.03
2023-03-26T05:24:30.454Z,53.38
2023-03-26T05:25:36.376Z,53.10
2023-03-26T05:26:43.000Z,51.28
2023-03-26T05:27:48.792Z,51.72
2023-03-26T05:28:55.709Z,51.90
2023-03-26T05:30:03.914Z,51.30
2023-03-26T05:31:11.344Z,47.75
2023-03-26T05:32:16.652Z,50.30
2023-03-26T05:33:23.641Z,51.90
2023-03-26T05:34:30.814Z,47.40
2023-03-26T05:35:38.310Z,48.40
2023-03-26T05:36:45.645Z,47.90
2023-03-26T05:37:52.934Z,49.63
2023-03-26T05:38:59.589Z,46.97
2023-03-26T05:40:05.647Z,46.63
2023-03-26T05:41:13.337Z,47.27
2023-03-26T05:42:18.646Z,46.33
2023-03-26T05:43:25.296Z,44.92
2023-03-26T05:44:30.838Z,45.38
2023-03-26T05:45:37.455Z,39.97
2023-03-26T05:46:42.879Z,43.55
2023-03-26T05:47:51.139Z,42.25
2023-03-26T05:48:56.846Z,42.25
2023-03-26T05:50:03.552Z,41.45
2023-03-26T05:51:10.980Z,40.93
2023-03-26T05:52:20.530Z,41.83
2023-03-26T05:53:28.567Z,40.83
2023-03-26T05:54:34.225Z,41.13
2023-03-26T05:55:42.066Z,40.38
2023-03-26T05:56:47.443Z,41.42
2023-03-26T05:57:54.203Z,39.00
2023-03-26T05:58:59.561Z,40.17
2023-03-26T06:00:07.491Z,40.33
2023-03-26T06:01:18.368Z,41.22
2023-03-26T06:02:25.197Z,40.63
2023-03-26T06:03:30.817Z,40.70
2023-03-26T06:04:42.307Z,41.30
2023-03-26T06:05:47.728Z,41.40
2023-03-26T06:06:56.199Z,41.05
2023-03-26T06:08:01.574Z,39.55
2023-03-26T06:09:08.344Z,41.40
2023-03-26T06:10:14.609Z,40.33
2023-03-26T06:11:25.004Z,40.75
2023-03-26T06:12:30.734Z,40.65
2023-03-26T06:13:37.450Z,39.47
2023-03-26T06:14:44.260Z,39.43
2023-03-26T06:15:50.882Z,40.60
2023-03-26T06:16:56.271Z,40.75
2023-03-26T06:18:02.998Z,39.17
2023-03-26T06:19:08.430Z,39.53
2023-03-26T06:20:16.333Z,37.40
2023-03-26T06:21:21.671Z,38.15
2023-03-26T06:22:30.130Z,40.38
2023-03-26T06:23:35.790Z,36.63
2023-03-26T06:24:42.440Z,38.30
2023-03-26T06:25:47.871Z,40.30
2023-03-26T06:26:54.527Z,38.33
2023-03-26T06:27:59.879Z,38.55
2023-03-26T06:29:06.750Z,39.47
2023-03-26T06:30:13.324Z,37.47
2023-03-26T06:31:20.752Z,36.58
2023-03-26T06:32:26.308Z,37.28
2023-03-26T06:33:34.127Z,37.22
2023-03-26T06:34:39.454Z,36.95
2023-03-26T06:35:46.826Z,36.83
2023-03-26T06:36:54.140Z,43.83
2023-03-26T06:38:02.866Z,37.10
2023-03-26T06:39:08.417Z,35.00
2023-03-26T06:40:16.040Z,36.75
2023-03-26T06:41:21.481Z,35.10
2023-03-26T06:43:06.788Z,36.30
2023-03-26T06:43:54.855Z,40.33
2023-03-26T06:45:00.225Z,36.63
2023-03-26T06:46:07.320Z,36.53
2023-03-26T06:47:12.642Z,35.67
2023-03-26T06:48:19.407Z,35.03
2023-03-26T06:49:26.065Z,34.78
2023-03-26T06:50:31.440Z,34.08
2023-03-26T06:51:39.254Z,34.92
2023-03-26T06:52:45.991Z,33.17
2023-03-26T06:53:53.019Z,33.28
2023-03-26T06:54:59.765Z,34.15
2023-03-26T06:56:06.116Z,32.80
2023-03-26T06:57:14.595Z,32.70
2023-03-26T06:58:21.293Z,31.83
2023-03-26T06:59:26.675Z,31.53
2023-03-26T07:00:33.409Z,32.38
2023-03-26T07:01:40.172Z,32.45
2023-03-26T07:02:46.954Z,32.63
2023-03-26T07:03:53.688Z,29.95
2023-03-26T07:04:59.098Z,30.77
2023-03-26T07:06:05.722Z,30.17
2023-03-26T07:07:11.307Z,30.38
2023-03-26T07:08:18.081Z,32.00
2023-03-26T07:09:27.692Z,30.27
2023-03-26T07:10:33.376Z,30.57
2023-03-26T07:11:40.096Z,29.27
2023-03-26T07:12:46.103Z,28.83
2023-03-26T07:13:52.781Z,29.58
2023-03-26T07:15:00.214Z,29.15
2023-03-26T07:16:07.362Z,28.17
2023-03-26T07:17:12.816Z,30.02
2023-03-26T07:18:19.551Z,29.10
2023-03-26T07:19:26.398Z,27.67
2023-03-26T07:20:32.324Z,27.23
2023-03-26T07:21:39.584Z,27.50
2023-03-26T07:22:45.531Z,27.45
2023-03-26T07:23:55.045Z,26.42
2023-03-26T07:25:04.428Z,25.95
2023-03-26T07:26:22.529Z,25.98
2023-03-26T07:27:40.073Z,25.83
2023-03-26T07:29:04.024Z,26.95
2023-03-26T07:30:13.437Z,26.02
2023-03-26T07:31:29.612Z,27.92
2023-03-26T07:32:40.702Z,25.63
2023-03-26T07:33:52.792Z,24.33
2023-03-26T07:35:02.247Z,25.88
2023-03-26T07:36:19.028Z,25.00
2023-03-26T07:37:40.931Z,24.77
2023-03-26T07:38:55.704Z,24.95
2023-03-26T07:40:06.139Z,24.23
2023-03-26T07:41:15.495Z,26.17
2023-03-26T07:42:30.325Z,24.50
2023-03-26T07:44:03.649Z,23.88
2023-03-26T07:45:20.388Z,24.90
2023-03-26T07:46:31.511Z,25.20
2023-03-26T07:47:40.420Z,24.52
2023-03-26T07:48:49.294Z,24.38
2023-03-26T07:49:56.537Z,23.30
2023-03-26T07:51:04.440Z,23.48
2023-03-26T07:52:10.808Z,23.80
2023-03-26T07:53:17.910Z,24.05
2023-03-26T07:54:26.187Z,23.10
2023-03-26T07:55:35.161Z,23.88
2023-03-26T07:56:43.967Z,23.38
2023-03-26T07:58:01.256Z,24.37
2023-03-26T07:59:17.373Z,23.98
2023-03-26T08:00:24.538Z,22.70
2023-03-26T08:01:42.105Z,22.38
2023-03-26T08:03:18.385Z,23.15
2023-03-26T08:05:00.035Z,21.30
2023-03-26T08:06:13.165Z,21.92
2023-03-26T08:07:23.624Z,20.77
2023-03-26T08:08:34.706Z,22.42
2023-03-26T08:09:58.211Z,21.25
2023-03-26T08:11:15.777Z,21.20
2023-03-26T08:12:27.218Z,20.40
2023-03-26T08:13:39.293Z,20.80
2023-03-26T08:14:52.354Z,21.40
2023-03-26T08:16:04.216Z,20.73
2023-03-26T08:17:14.313Z,19.90
2023-03-26T08:18:28.974Z,20.55
2023-03-26T08:19:46.365Z,21.58
2023-03-26T08:20:55.227Z,20.08
2023-03-26T08:22:03.662Z,20.27
2023-03-26T08:23:15.407Z,20.03
2023-03-26T08:24:25.553Z,19.65
2023-03-26T08:25:35.179Z,19.58
2023-03-26T08:26:50.527Z,21.17
2023-03-26T08:28:10.745Z,20.85
2023-03-26T08:29:22.332Z,20.23
2023-03-26T08:30:29.858Z,19.33
2023-03-26T08:31:37.875Z,18.75
2023-03-26T08:32:43.833Z,20.02
2023-03-26T08:33:51.598Z,19.30
2023-03-26T08:34:58.971Z,19.43
2023-03-26T08:36:05.678Z,19.60
2023-03-26T08:37:11.768Z,19.58
2023-03-26T08:38:19.919Z,19.35
2023-03-26T08:39:25.234Z,19.55
2023-03-26T08:41:02.424Z,18.83
2023-03-26T08:42:37.782Z,18.85
2023-03-26T08:44:21.930Z,18.65
2023-03-26T08:45:55.960Z,17.33
2023-03-26T08:47:28.948Z,18.05
2023-03-26T08:49:07.529Z,18.67
2023-03-26T08:50:39.657Z,17.92
2023-03-26T08:52:28.822Z,17.95
2023-03-26T08:54:09.363Z,20.00
2023-03-26T08:55:47.014Z,20.80
2023-03-26T08:57:01.147Z,19.85
2023-03-26T08:58:46.253Z,19.58
2023-03-26T09:00:18.788Z,18.40
2023-03-26T09:02:02.801Z,18.92
2023-03-26T09:03:37.240Z,17.05
2023-03-26T09:05:24.409Z,18.63
2023-03-26T09:06:48.386Z,17.52
2023-03-26T09:08:14.641Z,17.27
2023-03-26T09:10:03.222Z,17.13
2023-03-26T09:11:42.477Z,15.65
2023-03-26T09:13:10.420Z,17.90
2023-03-26T09:14:59.236Z,17.60
2023-03-26T09:28:05.087Z,16.02
2023-03-26T09:31:35.141Z,18.52
2023-03-26T09:56:29.861Z,16.55
2023-03-26T09:57:52.778Z,18.27
2023-03-26T09:59:18.402Z,14.43
2023-03-26T10:00:31.203Z,18.52
2023-03-26T10:01:42.529Z,15.38
2023-03-26T10:03:19.096Z,15.70
2023-03-26T10:05:02.373Z,16.45
2023-03-26T10:06:28.991Z,18.08
2023-03-26T10:07:52.474Z,14.50
2023-03-26T10:09:10.889Z,14.75
2023-03-26T10:10:24.316Z,16.38
2023-03-26T10:11:41.278Z,13.70
2023-03-26T10:12:49.440Z,13.70
2023-03-26T10:14:05.289Z,15.40
2023-03-26T10:15:26.512Z,15.95
2023-03-26T10:16:41.181Z,17.30
2023-03-26T10:17:57.700Z,14.15
2023-03-26T10:19:27.790Z,13.98
2023-03-26T10:20:53.204Z,14.93
2023-03-26T10:22:06.890Z,17.17
2023-03-26T10:23:23.686Z,16.42
2023-03-26T10:24:50.800Z,16.83
2023-03-26T10:26:10.662Z,16.00
2023-03-26T10:27:26.553Z,16.23
2023-03-26T10:28:45.721Z,14.93
2023-03-26T10:30:21.700Z,16.75
2023-03-26T10:31:49.727Z,19.02
2023-03-26T10:33:04.749Z,16.67
2023-03-26T10:34:28.375Z,15.10
2023-03-26T10:35:46.292Z,14.07
2023-03-26T10:36:57.366Z,17.88
2023-03-26T10:38:12.795Z,15.63
2023-03-26T13:06:59.095Z,18.75
2023-03-26T13:08:26.230Z,19.92
2023-03-26T13:09:58.552Z,18.98
2023-03-26T13:11:08.849Z,20.77
2023-03-26T13:12:24.584Z,23.45
2023-03-26T13:13:59.582Z,20.17
2023-03-26T13:15:19.785Z,17.88
2023-03-26T13:16:30.352Z,20.70
2023-03-26T13:17:39.430Z,18.00
2023-03-26T13:18:49.144Z,19.15
2023-03-26T13:20:02.600Z,20.30
2023-03-26T13:21:14.727Z,18.75
2023-03-26T13:22:29.285Z,19.35
2023-03-26T13:23:43.595Z,19.83
2023-03-26T13:24:55.128Z,20.02
2023-03-26T13:26:07.629Z,20.75
2023-03-26T13:27:25.364Z,21.58
2023-03-26T13:28:35.955Z,22.25
2023-03-26T13:29:48.029Z,23.42
2023-03-26T13:31:00.824Z,21.25
2023-03-26T13:32:10.806Z,21.33
2023-03-26T13:33:29.351Z,19.67
2023-03-26T13:34:43.232Z,19.65
2023-03-26T13:35:52.469Z,20.30
2023-03-26T13:37:07.331Z,19.33
2023-03-26T13:38:17.304Z,20.02
2023-03-26T13:39:30.064Z,21.52
2023-03-26T13:40:42.429Z,20.25
2023-03-26T13:41:56.471Z,19.55
2023-03-26T13:43:14.232Z,20.55
2023-03-26T13:44:25.773Z,25.27
2023-03-26T13:45:44.714Z,19.92
2023-03-26T13:46:52.761Z,22.42
2023-03-26T13:48:01.686Z,19.43
2023-03-26T13:49:14.392Z,19.90
2023-03-26T13:50:25.794Z,22.10
2023-03-26T13:51:36.836Z,20.15
2023-03-26T13:52:47.289Z,19.95
2023-03-26T13:53:59.594Z,18.20
2023-03-26T13:55:23.473Z,17.63
2023-03-26T13:56:34.554Z,19.17
2023-03-26T13:57:44.014Z,20.33
2023-03-26T13:58:54.314Z,20.45
2023-03-26T14:00:02.949Z,19.73
2023-03-26T14:01:10.768Z,20.17
2023-03-26T14:02:23.662Z,20.38
2023-03-26T14:03:32.203Z,19.15
2023-03-26T14:04:42.018Z,19.42
2023-03-26T14:05:50.888Z,19.05
2023-03-26T14:07:02.382Z,22.65
2023-03-26T14:08:12.866Z,20.10
2023-03-26T14:09:26.571Z,22.58
2023-03-26T14:10:35.770Z,20.92
2023-03-26T14:11:52.699Z,19.97
2023-03-26T14:13:02.419Z,20.80
2023-03-26T14:14:12.074Z,27.13
2023-03-26T14:15:21.515Z,18.23
2023-03-26T14:16:32.277Z,20.75
2023-03-26T14:17:42.580Z,21.45
2023-03-26T14:18:53.102Z,21.50
2023-03-26T14:20:57.914Z,19.77
2023-03-26T14:22:17.465Z,20.63
2023-03-26T14:23:36.802Z,20.02
2023-03-26T14:25:21.221Z,20.80
2023-03-26T14:26:38.942Z,19.48
2023-03-26T14:27:52.294Z,21.63
2023-03-26T14:29:35.082Z,19.35
2023-03-26T14:30:58.086Z,20.15
2023-03-26T14:32:24.429Z,21.70
2023-03-26T14:33:54.231Z,19.38
2023-03-26T14:35:28.480Z,21.73
2023-03-26T14:36:56.245Z,20.38
2023-03-26T14:38:29.978Z,21.77
2023-03-26T14:39:57.509Z,20.07
2023-03-26T14:41:14.599Z,19.55
2023-03-26T14:42:27.783Z,18.80
2023-03-26T14:43:52.628Z,18.75
2023-03-26T14:45:25.562Z,26.13
2023-03-26T14:46:42.444Z,29.42
2023-03-26T14:47:53.171Z,23.23
2023-03-26T14:49:39.810Z,20.20
2023-03-26T14:50:58.048Z,18.67
2023-03-26T14:52:10.726Z,21.40
2023-03-26T14:53:25.880Z,19.63
2023-03-26T14:54:34.947Z,19.38
2023-03-26T14:56:04.286Z,19.40
2023-03-26T14:57:30.254Z,19.33
2023-03-26T14:59:14.769Z,22.38
2023-03-26T15:01:14.343Z,19.83
2023-03-26T15:02:52.803Z,21.50
2023-03-26T15:04:39.964Z,19.13
2023-03-26T15:06:12.437Z,22.60
2023-03-26T15:07:55.235Z,20.77
2023-03-26T15:09:39.006Z,18.57
2023-03-26T15:11:10.858Z,21.98
2023-03-26T15:12:29.904Z,21.17
2023-03-26T15:14:01.069Z,22.83
2023-03-26T15:15:37.951Z,24.98
2023-03-26T15:17:11.587Z,18.25
2023-03-26T15:18:51.905Z,18.27
2023-03-26T15:20:28.151Z,20.77
2023-03-26T15:22:01.434Z,22.45
2023-03-26T15:23:49.000Z,21.20
2023-03-26T15:25:45.100Z,21.63
2023-03-26T15:27:23.533Z,20.40
2023-03-26T15:29:20.629Z,21.88
2023-03-26T15:31:05.042Z,20.83
2023-03-26T15:32:41.991Z,22.17
2023-03-26T15:34:21.805Z,21.67
2023-03-26T15:35:52.627Z,23.48
2023-03-26T15:37:31.440Z,26.35
2023-03-26T15:39:28.744Z,26.02
2023-03-26T15:40:47.305Z,22.70
2023-03-26T15:41:57.479Z,23.00
2023-03-26T15:43:11.139Z,22.13
2023-03-26T15:44:50.946Z,22.20
2023-03-26T15:46:26.332Z,23.75
2023-03-26T15:47:43.361Z,22.63
2023-03-26T15:48:59.915Z,23.33
2023-03-26T15:50:29.589Z,22.65
2023-03-26T15:51:50.859Z,20.90
2023-03-26T15:52:59.350Z,25.23
2023-03-26T15:54:11.560Z,23.40
2023-03-26T15:55:29.262Z,22.30
2023-03-26T15:57:05.360Z,23.08
2023-03-26T15:58:17.155Z,22.10
2023-03-26T15:59:38.548Z,23.45
2023-03-26T16:00:58.254Z,22.08
2023-03-26T16:02:17.666Z,22.60
2023-03-26T16:03:32.384Z,21.15
2023-03-26T16:04:50.794Z,22.73
2023-03-26T16:06:17.341Z,21.77
2023-03-26T16:08:00.195Z,23.05
2023-03-26T16:09:17.951Z,21.57
2023-03-26T16:10:31.900Z,26.20
2023-03-26T16:11:52.278Z,28.55
2023-03-26T16:13:14.992Z,28.50
2023-03-26T16:14:24.067Z,29.58
2023-03-26T16:15:34.779Z,29.33
2023-03-26T16:17:00.154Z,30.25
2023-03-26T16:18:42.922Z,29.65
2023-03-26T16:20:04.599Z,27.30
2023-03-26T16:21:55.900Z,24.42
2023-03-26T16:23:05.101Z,25.87
2023-03-26T16:24:32.883Z,27.55
2023-03-26T16:25:40.010Z,25.05
2023-03-26T16:26:58.719Z,25.70
2023-03-26T16:28:25.552Z,28.83
2023-03-26T16:29:32.679Z,27.75
2023-03-26T16:30:39.809Z,29.13
2023-03-26T16:32:14.347Z,26.00
2023-03-26T16:33:24.875Z,30.95
2023-03-26T16:34:35.690Z,22.33
2023-03-26T16:36:11.263Z,23.07
2023-03-26T16:37:45.158Z,26.83
2023-03-26T16:38:53.326Z,28.17
2023-03-26T16:40:33.339Z,26.02
2023-03-26T16:42:05.602Z,24.88
2023-03-26T16:43:37.459Z,28.15
2023-03-26T16:44:47.797Z,24.35
2023-03-26T16:45:56.239Z,28.88
2023-03-26T16:47:07.144Z,25.90
2023-03-26T16:48:25.231Z,58.22
2023-03-26T16:49:48.357Z,66.47
2023-03-26T16:51:20.155Z,53.53
2023-03-26T16:52:35.251Z,37.72
2023-03-26T16:53:44.978Z,34.72
2023-03-26T16:54:55.508Z,26.05
2023-03-26T16:56:05.773Z,24.45
2023-03-26T16:57:20.932Z,29.52
2023-03-26T16:58:35.105Z,22.98
2023-03-26T17:00:05.963Z,26.85
2023-03-26T17:01:22.799Z,23.55
2023-03-26T17:02:37.902Z,24.73
2023-03-26T17:03:53.659Z,24.50
2023-03-26T17:05:05.179Z,23.35
2023-03-26T17:06:24.815Z,23.65
2023-03-26T17:07:35.396Z,27.85
2023-03-26T17:08:50.754Z,30.90
2023-03-26T17:10:05.172Z,29.63
2023-03-26T17:11:19.980Z,29.00
2023-03-26T17:12:32.862Z,33.63
2023-03-26T17:13:46.097Z,30.88
2023-03-26T17:15:09.440Z,30.73
2023-03-26T17:16:19.665Z,28.50
2023-03-26T17:17:44.597Z,27.13
2023-03-26T17:18:57.986Z,25.42
2023-03-26T17:20:10.435Z,27.05
2023-03-26T17:21:20.820Z,27.83
2023-03-26T17:22:39.389Z,29.58
2023-03-26T17:23:58.227Z,25.13
2023-03-26T17:25:07.268Z,27.45
2023-03-26T17:26:20.246Z,24.67
2023-03-26T17:27:35.481Z,24.07
2023-03-26T17:28:51.351Z,24.00
2023-03-26T17:30:34.102Z,21.95
2023-03-26T17:31:45.662Z,23.55
2023-03-26T17:33:02.076Z,24.25
2023-03-26T17:34:48.780Z,27.40
2023-03-26T17:36:26.144Z,22.30
2023-03-26T17:37:35.305Z,25.02
2023-03-26T17:39:06.585Z,26.02
2023-03-26T17:40:52.807Z,23.77
2023-03-26T17:42:15.163Z,22.63
2023-03-26T17:43:47.887Z,25.58
2023-03-26T17:44:53.646Z,23.55
2023-03-26T17:46:03.202Z,24.08
2023-03-26T17:47:16.297Z,21.20
2023-03-26T17:48:25.401Z,24.27
2023-03-26T17:49:34.873Z,25.67
2023-03-26T17:50:48.377Z,25.83
2023-03-26T17:51:59.477Z,26.25
2023-03-26T17:53:07.382Z,29.27
2023-03-26T17:54:21.991Z,29.13
2023-03-26T17:55:32.441Z,25.40
2023-03-26T17:56:39.703Z,23.13
2023-03-26T17:57:48.263Z,29.75
2023-03-26T17:59:00.155Z,30.58
2023-03-26T18:00:24.976Z,29.63
2023-03-26T18:01:35.098Z,26.77
2023-03-26T18:02:44.212Z,27.08
2023-03-26T18:03:53.376Z,24.08
2023-03-26T18:04:59.099Z,23.85
2023-03-26T18:06:10.117Z,31.43
2023-03-26T18:07:53.833Z,28.83
2023-03-26T18:09:10.541Z,33.25
2023-03-26T18:10:41.431Z,30.73
2023-03-26T18:12:27.913Z,31.42
2023-03-26T18:13:49.038Z,27.70
2023-03-26T18:15:31.340Z,32.65
2023-03-26T18:16:40.948Z,28.25
2023-03-26T18:17:49.507Z,27.15
2023-03-26T18:18:58.595Z,29.55
2023-03-26T18:20:11.412Z,29.47
2023-03-26T18:21:23.550Z,27.58
2023-03-26T18:22:32.840Z,27.80
2023-03-26T18:23:41.049Z,28.27
2023-03-26T18:24:49.404Z,32.50
2023-03-26T18:26:00.596Z,29.13
2023-03-26T18:27:11.499Z,27.27
2023-03-26T18:28:19.514Z,29.25
2023-03-26T18:29:26.078Z,30.35
2023-03-26T18:30:33.137Z,27.35
2023-03-26T18:31:39.264Z,24.37
2023-03-26T18:32:53.883Z,24.35
2023-03-26T18:34:01.506Z,26.45
2023-03-26T18:35:18.507Z,27.92
2023-03-26T18:36:25.951Z,26.08
2023-03-26T18:37:36.104Z,23.83
2023-03-26T18:38:43.021Z,26.40
2023-03-26T18:40:00.473Z,27.15
2023-03-26T18:41:07.421Z,25.02
2023-03-26T18:42:22.809Z,23.95
2023-03-26T18:43:35.162Z,23.70
2023-03-26T18:44:42.654Z,22.40
2023-03-26T18:45:50.257Z,28.48
2023-03-26T18:46:57.883Z,26.73
2023-03-26T18:48:07.617Z,23.15
2023-03-26T18:49:14.892Z,26.83
2023-03-26T18:50:31.816Z,26.65
2023-03-26T18:51:46.449Z,27.33